sensor_id;sensor_type;location;lat;lon;timestamp;P1;durP1;ratioP1;P2;durP2;ratioP2
20140;SDS011;10231;47.702;9.826;2023-03-15T00:01:35;1.50;;;0.80;;
20140;SDS011;10231;47.702;9.826;2023-03-15T00:04:01;1.27;;;0.80;;
20140;SDS011;10231;47.702;9.826;2023-03-15T00:06:29;0.80;;;0.80;;
20140;SDS011;10231;47.702;9.826;2023-03-15T00:08:58;2.77;;;0.97;;
20140;SDS011;10231;47.702;9.826;2023-03-15T00:11:26;0.63;;;0.60;;
20140;SDS011;10231;47.702;9.826;2023-03-15T00:13:52;0.57;;;0.57;;
20140;SDS011;10231;47.702;9.826;2023-03-15T00:16:17;2.00;;;0.60;;
20140;SDS011;10231;47.702;9.826;2023-03-15T00:18:46;0.93;;;0.40;;
20140;SDS011;10231;47.702;9.826;2023-03-15T00:21:12;0.40;;;0.40;;
20140;SDS011;10231;47.702;9.826;2023-03-15T00:23:37;0.50;;;0.50;;
20140;SDS011;10231;47.702;9.826;2023-03-15T00:26:03;0.30;;;0.30;;
20140;SDS011;10231;47.702;9.826;2023-03-15T00:28:29;0.40;;;0.40;;
20140;SDS011;10231;47.702;9.826;2023-03-15T00:31:07;0.40;;;0.40;;
20140;SDS011;10231;47.702;9.826;2023-03-15T00:33:38;0.33;;;0.33;;
20140;SDS011;10231;47.702;9.826;2023-03-15T00:36:06;0.40;;;0.40;;
20140;SDS011;10231;47.702;9.826;2023-03-15T00:38:32;0.30;;;0.30;;
20140;SDS011;10231;47.702;9.826;2023-03-15T00:43:31;1.23;;;0.80;;
20140;SDS011;10231;47.702;9.826;2023-03-15T00:45:57;0.50;;;0.50;;
20140;SDS011;10231;47.702;9.826;2023-03-15T00:48:23;0.37;;;0.37;;
20140;SDS011;10231;47.702;9.826;2023-03-15T00:50:48;0.30;;;0.30;;
20140;SDS011;10231;47.702;9.826;2023-03-15T00:53:14;0.90;;;0.33;;
20140;SDS011;10231;47.702;9.826;2023-03-15T00:55:39;0.43;;;0.43;;
20140;SDS011;10231;47.702;9.826;2023-03-15T00:58:06;0.40;;;0.40;;
20140;SDS011;10231;47.702;9.826;2023-03-15T01:00:32;0.40;;;0.40;;
20140;SDS011;10231;47.702;9.826;2023-03-15T01:02:58;0.30;;;0.30;;
20140;SDS011;10231;47.702;9.826;2023-03-15T01:05:23;0.40;;;0.40;;
20140;SDS011;10231;47.702;9.826;2023-03-15T01:07:50;0.40;;;0.40;;
20140;SDS011;10231;47.702;9.826;2023-03-15T01:10:16;0.40;;;0.40;;
20140;SDS011;10231;47.702;9.826;2023-03-15T01:12:43;0.50;;;0.50;;
20140;SDS011;10231;47.702;9.826;2023-03-15T01:15:10;0.30;;;0.30;;
20140;SDS011;10231;47.702;9.826;2023-03-15T01:17:37;0.50;;;0.50;;
20140;SDS011;10231;47.702;9.826;2023-03-15T01:20:03;0.37;;;0.37;;
20140;SDS011;10231;47.702;9.826;2023-03-15T01:22:30;0.50;;;0.50;;
20140;SDS011;10231;47.702;9.826;2023-03-15T01:24:55;0.50;;;0.37;;
20140;SDS011;10231;47.702;9.826;2023-03-15T01:27:21;0.50;;;0.50;;
20140;SDS011;10231;47.702;9.826;2023-03-15T01:29:46;1.67;;;0.40;;
20140;SDS011;10231;47.702;9.826;2023-03-15T01:32:12;0.47;;;0.47;;
20140;SDS011;10231;47.702;9.826;2023-03-15T01:34:38;0.57;;;0.30;;
20140;SDS011;10231;47.702;9.826;2023-03-15T01:37:03;0.30;;;0.30;;
20140;SDS011;10231;47.702;9.826;2023-03-15T01:39:29;0.40;;;0.40;;
20140;SDS011;10231;47.702;9.826;2023-03-15T01:41:55;0.50;;;0.50;;
20140;SDS011;10231;47.702;9.826;2023-03-15T01:44:20;1.13;;;0.40;;
20140;SDS011;10231;47.702;9.826;2023-03-15T01:46:48;0.50;;;0.50;;
20140;SDS011;10231;47.702;9.826;2023-03-15T01:49:24;0.73;;;0.40;;
20140;SDS011;10231;47.702;9.826;2023-03-15T01:54:25;0.40;;;0.40;;
20140;SDS011;10231;47.702;9.826;2023-03-15T01:59:29;1.10;;;0.70;;
20140;SDS011;10231;47.702;9.826;2023-03-15T02:01:57;0.97;;;0.90;;
20140;SDS011;10231;47.702;9.826;2023-03-15T02:04:28;1.07;;;1.07;;
20140;SDS011;10231;47.702;9.826;2023-03-15T02:06:57;0.83;;;0.83;;
20140;SDS011;10231;47.702;9.826;2023-03-15T02:09:36;1.40;;;0.93;;
20140;SDS011;10231;47.702;9.826;2023-03-15T02:12:09;2.00;;;0.80;;
20140;SDS011;10231;47.702;9.826;2023-03-15T02:14:35;1.27;;;1.27;;
20140;SDS011;10231;47.702;9.826;2023-03-15T02:17:01;1.10;;;1.03;;
20140;SDS011;10231;47.702;9.826;2023-03-15T02:25:09;1.93;;;1.30;;
20140;SDS011;10231;47.702;9.826;2023-03-15T02:27:42;1.70;;;1.60;;
20140;SDS011;10231;47.702;9.826;2023-03-15T02:30:08;2.37;;;1.70;;
20140;SDS011;10231;47.702;9.826;2023-03-15T02:32:35;1.93;;;1.20;;
20140;SDS011;10231;47.702;9.826;2023-03-15T02:35:01;1.70;;;1.60;;
20140;SDS011;10231;47.702;9.826;2023-03-15T02:37:27;1.47;;;1.37;;
20140;SDS011;10231;47.702;9.826;2023-03-15T02:39:53;1.70;;;1.60;;
20140;SDS011;10231;47.702;9.826;2023-03-15T02:42:18;4.43;;;1.77;;
20140;SDS011;10231;47.702;9.826;2023-03-15T02:44:44;2.63;;;1.80;;
20140;SDS011;10231;47.702;9.826;2023-03-15T02:47:18;1.93;;;1.73;;
20140;SDS011;10231;47.702;9.826;2023-03-15T02:49:48;2.60;;;2.20;;
20140;SDS011;10231;47.702;9.826;2023-03-15T02:52:16;2.27;;;2.07;;
20140;SDS011;10231;47.702;9.826;2023-03-15T02:54:42;1.97;;;1.70;;
20140;SDS011;10231;47.702;9.826;2023-03-15T02:57:08;2.70;;;1.67;;
20140;SDS011;10231;47.702;9.826;2023-03-15T02:59:35;2.07;;;1.87;;
20140;SDS011;10231;47.702;9.826;2023-03-15T03:02:01;2.10;;;1.50;;
20140;SDS011;10231;47.702;9.826;2023-03-15T03:04:27;2.27;;;2.10;;
20140;SDS011;10231;47.702;9.826;2023-03-15T03:06:52;2.23;;;1.80;;
20140;SDS011;10231;47.702;9.826;2023-03-15T03:09:18;3.30;;;2.10;;
20140;SDS011;10231;47.702;9.826;2023-03-15T03:11:43;2.87;;;2.57;;
20140;SDS011;10231;47.702;9.826;2023-03-15T03:14:09;2.60;;;2.13;;
20140;SDS011;10231;47.702;9.826;2023-03-15T03:16:37;2.57;;;2.30;;
20140;SDS011;10231;47.702;9.826;2023-03-15T03:19:04;3.03;;;2.27;;
20140;SDS011;10231;47.702;9.826;2023-03-15T03:21:29;2.60;;;1.90;;
20140;SDS011;10231;47.702;9.826;2023-03-15T03:23:55;3.80;;;2.50;;
20140;SDS011;10231;47.702;9.826;2023-03-15T03:26:20;5.77;;;2.03;;
20140;SDS011;10231;47.702;9.826;2023-03-15T03:28:46;3.10;;;2.70;;
20140;SDS011;10231;47.702;9.826;2023-03-15T03:31:19;2.17;;;1.97;;
20140;SDS011;10231;47.702;9.826;2023-03-15T03:33:46;2.77;;;2.17;;
20140;SDS011;10231;47.702;9.826;2023-03-15T03:36:12;3.47;;;1.93;;
20140;SDS011;10231;47.702;9.826;2023-03-15T03:38:39;3.10;;;2.17;;
20140;SDS011;10231;47.702;9.826;2023-03-15T03:41:06;5.03;;;2.67;;
20140;SDS011;10231;47.702;9.826;2023-03-15T03:43:32;2.23;;;1.80;;
20140;SDS011;10231;47.702;9.826;2023-03-15T03:45:58;7.53;;;2.13;;
20140;SDS011;10231;47.702;9.826;2023-03-15T03:48:23;3.43;;;2.10;;
20140;SDS011;10231;47.702;9.826;2023-03-15T03:50:49;3.37;;;2.17;;
20140;SDS011;10231;47.702;9.826;2023-03-15T03:53:14;2.57;;;2.37;;
20140;SDS011;10231;47.702;9.826;2023-03-15T03:55:40;4.27;;;2.03;;
20140;SDS011;10231;47.702;9.826;2023-03-15T03:58:06;3.97;;;2.00;;
20140;SDS011;10231;47.702;9.826;2023-03-15T04:00:32;5.17;;;2.20;;
20140;SDS011;10231;47.702;9.826;2023-03-15T04:02:58;5.70;;;2.40;;
20140;SDS011;10231;47.702;9.826;2023-03-15T04:05:26;3.90;;;2.53;;
20140;SDS011;10231;47.702;9.826;2023-03-15T04:07:52;3.10;;;2.20;;
20140;SDS011;10231;47.702;9.826;2023-03-15T04:10:18;2.50;;;2.27;;
20140;SDS011;10231;47.702;9.826;2023-03-15T04:12:43;2.47;;;2.27;;
20140;SDS011;10231;47.702;9.826;2023-03-15T04:15:09;3.87;;;2.57;;
20140;SDS011;10231;47.702;9.826;2023-03-15T04:17:36;2.80;;;2.20;;
20140;SDS011;10231;47.702;9.826;2023-03-15T04:20:02;4.83;;;2.37;;
20140;SDS011;10231;47.702;9.826;2023-03-15T04:22:34;3.43;;;2.20;;
20140;SDS011;10231;47.702;9.826;2023-03-15T04:25:00;3.67;;;2.50;;
20140;SDS011;10231;47.702;9.826;2023-03-15T04:27:26;4.57;;;2.40;;
20140;SDS011;10231;47.702;9.826;2023-03-15T04:29:52;2.87;;;2.00;;
20140;SDS011;10231;47.702;9.826;2023-03-15T04:32:18;5.87;;;2.70;;
20140;SDS011;10231;47.702;9.826;2023-03-15T04:34:43;3.47;;;2.50;;
20140;SDS011;10231;47.702;9.826;2023-03-15T04:37:09;5.53;;;2.40;;
20140;SDS011;10231;47.702;9.826;2023-03-15T04:39:34;2.90;;;2.10;;
20140;SDS011;10231;47.702;9.826;2023-03-15T04:42:00;4.90;;;2.33;;
20140;SDS011;10231;47.702;9.826;2023-03-15T04:44:25;4.87;;;1.87;;
20140;SDS011;10231;47.702;9.826;2023-03-15T04:46:54;5.33;;;1.77;;
20140;SDS011;10231;47.702;9.826;2023-03-15T04:49:19;3.13;;;2.23;;
20140;SDS011;10231;47.702;9.826;2023-03-15T04:51:45;6.13;;;2.80;;
20140;SDS011;10231;47.702;9.826;2023-03-15T04:54:11;2.30;;;2.00;;
20140;SDS011;10231;47.702;9.826;2023-03-15T04:56:36;2.93;;;2.53;;
20140;SDS011;10231;47.702;9.826;2023-03-15T04:59:02;2.93;;;2.43;;
20140;SDS011;10231;47.702;9.826;2023-03-15T05:01:29;3.73;;;2.27;;
20140;SDS011;10231;47.702;9.826;2023-03-15T05:03:56;2.60;;;2.40;;
20140;SDS011;10231;47.702;9.826;2023-03-15T05:06:22;3.27;;;2.20;;
20140;SDS011;10231;47.702;9.826;2023-03-15T05:08:48;2.87;;;2.53;;
20140;SDS011;10231;47.702;9.826;2023-03-15T05:11:15;3.60;;;2.70;;
20140;SDS011;10231;47.702;9.826;2023-03-15T05:13:40;4.27;;;2.93;;
20140;SDS011;10231;47.702;9.826;2023-03-15T05:16:06;3.23;;;2.53;;
20140;SDS011;10231;47.702;9.826;2023-03-15T05:18:31;3.63;;;2.80;;
20140;SDS011;10231;47.702;9.826;2023-03-15T05:20:57;2.97;;;2.33;;
20140;SDS011;10231;47.702;9.826;2023-03-15T05:23:23;2.87;;;2.60;;
20140;SDS011;10231;47.702;9.826;2023-03-15T05:25:50;3.40;;;2.67;;
20140;SDS011;10231;47.702;9.826;2023-03-15T05:28:20;7.17;;;5.27;;
20140;SDS011;10231;47.702;9.826;2023-03-15T05:30:47;6.83;;;4.77;;
20140;SDS011;10231;47.702;9.826;2023-03-15T05:33:13;6.27;;;5.17;;
20140;SDS011;10231;47.702;9.826;2023-03-15T05:35:39;9.00;;;5.37;;
20140;SDS011;10231;47.702;9.826;2023-03-15T05:38:04;9.57;;;6.43;;
20140;SDS011;10231;47.702;9.826;2023-03-15T05:40:30;6.73;;;6.13;;
20140;SDS011;10231;47.702;9.826;2023-03-15T05:42:57;6.33;;;5.60;;
20140;SDS011;10231;47.702;9.826;2023-03-15T05:45:22;4.57;;;4.07;;
20140;SDS011;10231;47.702;9.826;2023-03-15T05:47:48;5.87;;;4.47;;
20140;SDS011;10231;47.702;9.826;2023-03-15T05:50:14;3.87;;;3.57;;
20140;SDS011;10231;47.702;9.826;2023-03-15T05:52:40;4.23;;;3.77;;
20140;SDS011;10231;47.702;9.826;2023-03-15T05:55:06;4.33;;;3.60;;
20140;SDS011;10231;47.702;9.826;2023-03-15T05:57:32;4.73;;;4.23;;
20140;SDS011;10231;47.702;9.826;2023-03-15T05:59:57;6.23;;;5.00;;
20140;SDS011;10231;47.702;9.826;2023-03-15T06:02:23;7.40;;;4.90;;
20140;SDS011;10231;47.702;9.826;2023-03-15T06:04:48;6.20;;;4.43;;
20140;SDS011;10231;47.702;9.826;2023-03-15T06:07:14;5.90;;;4.40;;
20140;SDS011;10231;47.702;9.826;2023-03-15T06:09:40;6.53;;;4.30;;
20140;SDS011;10231;47.702;9.826;2023-03-15T06:12:05;6.47;;;5.17;;
20140;SDS011;10231;47.702;9.826;2023-03-15T06:14:31;6.67;;;6.00;;
20140;SDS011;10231;47.702;9.826;2023-03-15T06:16:56;7.50;;;6.67;;
20140;SDS011;10231;47.702;9.826;2023-03-15T06:19:22;7.60;;;6.47;;
20140;SDS011;10231;47.702;9.826;2023-03-15T06:21:48;12.30;;;8.57;;
20140;SDS011;10231;47.702;9.826;2023-03-15T06:24:14;14.97;;;12.40;;
20140;SDS011;10231;47.702;9.826;2023-03-15T06:26:39;17.80;;;12.43;;
20140;SDS011;10231;47.702;9.826;2023-03-15T06:29:05;8.40;;;6.80;;
20140;SDS011;10231;47.702;9.826;2023-03-15T06:31:31;9.03;;;5.27;;
20140;SDS011;10231;47.702;9.826;2023-03-15T06:33:56;6.63;;;5.67;;
20140;SDS011;10231;47.702;9.826;2023-03-15T06:36:22;7.80;;;5.90;;
20140;SDS011;10231;47.702;9.826;2023-03-15T06:38:49;8.10;;;7.00;;
20140;SDS011;10231;47.702;9.826;2023-03-15T06:41:14;7.70;;;6.87;;
20140;SDS011;10231;47.702;9.826;2023-03-15T06:43:40;6.07;;;5.47;;
20140;SDS011;10231;47.702;9.826;2023-03-15T06:46:06;7.43;;;5.47;;
20140;SDS011;10231;47.702;9.826;2023-03-15T06:48:32;6.20;;;5.47;;
20140;SDS011;10231;47.702;9.826;2023-03-15T06:50:57;8.23;;;5.80;;
20140;SDS011;10231;47.702;9.826;2023-03-15T06:53:23;11.00;;;5.77;;
20140;SDS011;10231;47.702;9.826;2023-03-15T06:55:48;7.23;;;5.60;;
20140;SDS011;10231;47.702;9.826;2023-03-15T06:58:15;7.13;;;5.47;;
20140;SDS011;10231;47.702;9.826;2023-03-15T07:00:41;7.93;;;6.20;;
20140;SDS011;10231;47.702;9.826;2023-03-15T07:03:08;7.13;;;5.83;;
20140;SDS011;10231;47.702;9.826;2023-03-15T07:05:34;6.57;;;5.20;;
20140;SDS011;10231;47.702;9.826;2023-03-15T07:08:00;5.20;;;4.70;;
20140;SDS011;10231;47.702;9.826;2023-03-15T07:10:25;6.07;;;5.00;;
20140;SDS011;10231;47.702;9.826;2023-03-15T07:12:52;7.80;;;6.90;;
20140;SDS011;10231;47.702;9.826;2023-03-15T07:15:17;3.70;;;3.03;;
20140;SDS011;10231;47.702;9.826;2023-03-15T07:17:43;6.07;;;3.27;;
20140;SDS011;10231;47.702;9.826;2023-03-15T07:20:08;4.00;;;3.13;;
20140;SDS011;10231;47.702;9.826;2023-03-15T07:22:34;6.13;;;3.13;;
20140;SDS011;10231;47.702;9.826;2023-03-15T07:25:00;4.83;;;2.23;;
20140;SDS011;10231;47.702;9.826;2023-03-15T07:27:26;3.47;;;2.60;;
20140;SDS011;10231;47.702;9.826;2023-03-15T07:29:51;3.73;;;2.10;;
20140;SDS011;10231;47.702;9.826;2023-03-15T07:32:19;4.77;;;1.80;;
20140;SDS011;10231;47.702;9.826;2023-03-15T07:34:44;2.80;;;2.33;;
20140;SDS011;10231;47.702;9.826;2023-03-15T07:37:10;4.37;;;2.00;;
20140;SDS011;10231;47.702;9.826;2023-03-15T07:39:36;5.20;;;2.17;;
20140;SDS011;10231;47.702;9.826;2023-03-15T07:42:01;2.93;;;2.10;;
20140;SDS011;10231;47.702;9.826;2023-03-15T07:44:27;2.70;;;2.03;;
20140;SDS011;10231;47.702;9.826;2023-03-15T07:46:52;5.77;;;2.43;;
20140;SDS011;10231;47.702;9.826;2023-03-15T07:49:20;4.77;;;2.03;;
20140;SDS011;10231;47.702;9.826;2023-03-15T07:51:45;3.57;;;2.13;;
20140;SDS011;10231;47.702;9.826;2023-03-15T07:54:11;2.87;;;2.03;;
20140;SDS011;10231;47.702;9.826;2023-03-15T07:56:37;3.10;;;2.80;;
20140;SDS011;10231;47.702;9.826;2023-03-15T07:59:02;3.23;;;1.87;;
20140;SDS011;10231;47.702;9.826;2023-03-15T08:01:28;2.00;;;1.80;;
20140;SDS011;10231;47.702;9.826;2023-03-15T08:03:54;4.40;;;1.70;;
20140;SDS011;10231;47.702;9.826;2023-03-15T08:06:19;3.87;;;1.83;;
20140;SDS011;10231;47.702;9.826;2023-03-15T08:08:45;3.03;;;1.73;;
20140;SDS011;10231;47.702;9.826;2023-03-15T08:11:10;2.70;;;1.80;;
20140;SDS011;10231;47.702;9.826;2023-03-15T08:13:36;3.33;;;2.03;;
20140;SDS011;10231;47.702;9.826;2023-03-15T08:16:02;4.83;;;2.53;;
20140;SDS011;10231;47.702;9.826;2023-03-15T08:18:27;3.63;;;2.10;;
20140;SDS011;10231;47.702;9.826;2023-03-15T08:20:53;2.83;;;1.70;;
20140;SDS011;10231;47.702;9.826;2023-03-15T08:23:19;2.80;;;1.60;;
20140;SDS011;10231;47.702;9.826;2023-03-15T08:25:46;1.70;;;1.60;;
20140;SDS011;10231;47.702;9.826;2023-03-15T08:28:12;2.80;;;2.00;;
20140;SDS011;10231;47.702;9.826;2023-03-15T08:30:38;2.23;;;2.03;;
20140;SDS011;10231;47.702;9.826;2023-03-15T08:33:04;2.77;;;2.00;;
20140;SDS011;10231;47.702;9.826;2023-03-15T08:35:31;4.30;;;2.10;;
20140;SDS011;10231;47.702;9.826;2023-03-15T08:37:58;4.67;;;2.63;;
20140;SDS011;10231;47.702;9.826;2023-03-15T08:40:26;2.97;;;2.13;;
20140;SDS011;10231;47.702;9.826;2023-03-15T08:42:53;2.80;;;1.80;;
20140;SDS011;10231;47.702;9.826;2023-03-15T08:45:20;3.20;;;1.60;;
20140;SDS011;10231;47.702;9.826;2023-03-15T08:47:48;2.10;;;1.90;;
20140;SDS011;10231;47.702;9.826;2023-03-15T08:50:14;5.60;;;1.90;;
20140;SDS011;10231;47.702;9.826;2023-03-15T08:52:41;4.40;;;2.13;;
20140;SDS011;10231;47.702;9.826;2023-03-15T08:55:07;4.17;;;2.30;;
20140;SDS011;10231;47.702;9.826;2023-03-15T08:57:34;3.93;;;2.17;;
20140;SDS011;10231;47.702;9.826;2023-03-15T09:00:00;2.40;;;2.20;;
20140;SDS011;10231;47.702;9.826;2023-03-15T09:02:32;3.17;;;1.93;;
20140;SDS011;10231;47.702;9.826;2023-03-15T09:04:57;4.50;;;2.27;;
20140;SDS011;10231;47.702;9.826;2023-03-15T09:07:23;2.90;;;1.83;;
20140;SDS011;10231;47.702;9.826;2023-03-15T09:09:49;2.10;;;1.83;;
20140;SDS011;10231;47.702;9.826;2023-03-15T09:12:18;2.47;;;1.70;;
20140;SDS011;10231;47.702;9.826;2023-03-15T09:14:45;1.70;;;1.50;;
20140;SDS011;10231;47.702;9.826;2023-03-15T09:17:11;1.97;;;1.60;;
20140;SDS011;10231;47.702;9.826;2023-03-15T09:19:37;3.53;;;2.10;;
20140;SDS011;10231;47.702;9.826;2023-03-15T09:22:03;2.53;;;1.70;;
20140;SDS011;10231;47.702;9.826;2023-03-15T09:24:29;2.30;;;1.80;;
20140;SDS011;10231;47.702;9.826;2023-03-15T09:26:55;2.33;;;1.37;;
20140;SDS011;10231;47.702;9.826;2023-03-15T09:29:21;1.97;;;1.57;;
20140;SDS011;10231;47.702;9.826;2023-03-15T09:31:47;1.67;;;1.57;;
20140;SDS011;10231;47.702;9.826;2023-03-15T09:34:12;1.87;;;1.73;;
20140;SDS011;10231;47.702;9.826;2023-03-15T09:36:38;3.00;;;1.73;;
20140;SDS011;10231;47.702;9.826;2023-03-15T09:39:03;3.30;;;1.80;;
20140;SDS011;10231;47.702;9.826;2023-03-15T09:44:05;2.93;;;1.20;;
20140;SDS011;10231;47.702;9.826;2023-03-15T09:46:42;1.80;;;1.60;;
20140;SDS011;10231;47.702;9.826;2023-03-15T09:49:41;1.53;;;1.43;;
20140;SDS011;10231;47.702;9.826;2023-03-15T09:52:20;5.70;;;3.93;;
20140;SDS011;10231;47.702;9.826;2023-03-15T09:55:23;3.20;;;2.20;;
20140;SDS011;10231;47.702;9.826;2023-03-15T09:57:52;1.60;;;1.40;;
20140;SDS011;10231;47.702;9.826;2023-03-15T10:00:29;3.17;;;1.50;;
20140;SDS011;10231;47.702;9.826;2023-03-15T10:03:02;2.33;;;1.60;;
20140;SDS011;10231;47.702;9.826;2023-03-15T10:05:36;1.57;;;1.47;;
20140;SDS011;10231;47.702;9.826;2023-03-15T10:08:12;1.53;;;1.37;;
20140;SDS011;10231;47.702;9.826;2023-03-15T10:10:51;1.37;;;1.20;;
20140;SDS011;10231;47.702;9.826;2023-03-15T10:13:30;1.27;;;1.23;;
20140;SDS011;10231;47.702;9.826;2023-03-15T10:16:43;1.33;;;1.30;;
20140;SDS011;10231;47.702;9.826;2023-03-15T10:24:58;1.73;;;1.23;;
20140;SDS011;10231;47.702;9.826;2023-03-15T10:27:14;2.00;;;1.20;;
20140;SDS011;10231;47.702;9.826;2023-03-15T10:29:58;1.27;;;1.23;;
20140;SDS011;10231;47.702;9.826;2023-03-15T10:32:26;1.60;;;1.50;;
20140;SDS011;10231;47.702;9.826;2023-03-15T10:34:55;1.50;;;1.33;;
20140;SDS011;10231;47.702;9.826;2023-03-15T10:37:23;1.93;;;1.43;;
20140;SDS011;10231;47.702;9.826;2023-03-15T10:39:53;1.50;;;1.40;;
20140;SDS011;10231;47.702;9.826;2023-03-15T10:42:31;1.37;;;1.27;;
20140;SDS011;10231;47.702;9.826;2023-03-15T10:44:58;1.47;;;1.17;;
20140;SDS011;10231;47.702;9.826;2023-03-15T10:47:39;0.83;;;0.83;;
20140;SDS011;10231;47.702;9.826;2023-03-15T10:50:07;3.50;;;1.47;;
20140;SDS011;10231;47.702;9.826;2023-03-15T10:52:37;1.30;;;1.20;;
20140;SDS011;10231;47.702;9.826;2023-03-15T10:55:06;1.40;;;1.30;;
20140;SDS011;10231;47.702;9.826;2023-03-15T10:57:38;2.47;;;2.27;;
20140;SDS011;10231;47.702;9.826;2023-03-15T11:00:24;1.63;;;1.53;;
20140;SDS011;10231;47.702;9.826;2023-03-15T11:05:54;1.53;;;1.20;;
20140;SDS011;10231;47.702;9.826;2023-03-15T11:08:34;1.10;;;1.10;;
20140;SDS011;10231;47.702;9.826;2023-03-15T11:11:02;3.10;;;1.20;;
20140;SDS011;10231;47.702;9.826;2023-03-15T11:13:35;1.67;;;1.30;;
20140;SDS011;10231;47.702;9.826;2023-03-15T11:16:03;1.57;;;1.20;;
20140;SDS011;10231;47.702;9.826;2023-03-15T11:18:43;1.73;;;1.50;;
20140;SDS011;10231;47.702;9.826;2023-03-15T11:21:15;1.20;;;1.10;;
20140;SDS011;10231;47.702;9.826;2023-03-15T11:23:43;1.43;;;1.00;;
20140;SDS011;10231;47.702;9.826;2023-03-15T11:26:15;1.43;;;1.13;;
20140;SDS011;10231;47.702;9.826;2023-03-15T11:28:52;2.30;;;1.17;;
20140;SDS011;10231;47.702;9.826;2023-03-15T11:31:23;1.40;;;1.00;;
20140;SDS011;10231;47.702;9.826;2023-03-15T11:33:53;1.10;;;1.00;;
20140;SDS011;10231;47.702;9.826;2023-03-15T11:36:22;0.87;;;0.87;;
20140;SDS011;10231;47.702;9.826;2023-03-15T11:38:50;1.00;;;1.00;;
20140;SDS011;10231;47.702;9.826;2023-03-15T11:41:28;1.30;;;0.80;;
20140;SDS011;10231;47.702;9.826;2023-03-15T11:46:48;1.30;;;0.90;;
20140;SDS011;10231;47.702;9.826;2023-03-15T11:51:54;0.70;;;0.70;;
20140;SDS011;10231;47.702;9.826;2023-03-15T11:54:20;0.80;;;0.80;;
20140;SDS011;10231;47.702;9.826;2023-03-15T11:56:52;1.67;;;1.00;;
20140;SDS011;10231;47.702;9.826;2023-03-15T11:59:27;0.80;;;0.80;;
20140;SDS011;10231;47.702;9.826;2023-03-15T12:07:03;1.37;;;0.90;;
20140;SDS011;10231;47.702;9.826;2023-03-15T12:09:37;1.40;;;0.83;;
20140;SDS011;10231;47.702;9.826;2023-03-15T12:18:02;0.90;;;0.90;;
20140;SDS011;10231;47.702;9.826;2023-03-15T12:20:37;1.13;;;1.13;;
20140;SDS011;10231;47.702;9.826;2023-03-15T12:28:29;0.90;;;0.90;;
20140;SDS011;10231;47.702;9.826;2023-03-15T12:31:00;2.20;;;0.60;;
20140;SDS011;10231;47.702;9.826;2023-03-15T12:33:29;0.40;;;0.40;;
20140;SDS011;10231;47.702;9.826;2023-03-15T12:36:00;0.70;;;0.70;;
20140;SDS011;10231;47.702;9.826;2023-03-15T12:38:35;0.83;;;0.53;;
20140;SDS011;10231;47.702;9.826;2023-03-15T12:41:07;0.50;;;0.50;;
20140;SDS011;10231;47.702;9.826;2023-03-15T12:43:53;0.40;;;0.40;;
20140;SDS011;10231;47.702;9.826;2023-03-15T12:47:03;0.83;;;0.50;;
20140;SDS011;10231;47.702;9.826;2023-03-15T12:49:35;0.53;;;0.50;;
20140;SDS011;10231;47.702;9.826;2023-03-15T12:52:03;0.50;;;0.50;;
20140;SDS011;10231;47.702;9.826;2023-03-15T12:54:30;0.50;;;0.50;;
20140;SDS011;10231;47.702;9.826;2023-03-15T12:57:02;0.90;;;0.50;;
20140;SDS011;10231;47.702;9.826;2023-03-15T12:59:34;0.60;;;0.60;;
20140;SDS011;10231;47.702;9.826;2023-03-15T13:02:30;1.00;;;1.00;;
20140;SDS011;10231;47.702;9.826;2023-03-15T13:05:10;0.33;;;0.33;;
20140;SDS011;10231;47.702;9.826;2023-03-15T13:10:23;0.43;;;0.43;;
20140;SDS011;10231;47.702;9.826;2023-03-15T13:13:00;0.53;;;0.53;;
20140;SDS011;10231;47.702;9.826;2023-03-15T13:18:16;0.53;;;0.50;;
20140;SDS011;10231;47.702;9.826;2023-03-15T13:20:47;0.57;;;0.57;;
20140;SDS011;10231;47.702;9.826;2023-03-15T13:23:17;0.57;;;0.47;;
20140;SDS011;10231;47.702;9.826;2023-03-15T13:29:00;0.40;;;0.40;;
20140;SDS011;10231;47.702;9.826;2023-03-15T13:31:35;0.30;;;0.30;;
20140;SDS011;10231;47.702;9.826;2023-03-15T13:34:15;0.40;;;0.40;;
20140;SDS011;10231;47.702;9.826;2023-03-15T13:36:45;0.40;;;0.40;;
20140;SDS011;10231;47.702;9.826;2023-03-15T13:39:20;0.37;;;0.37;;
20140;SDS011;10231;47.702;9.826;2023-03-15T13:41:48;0.50;;;0.50;;
20140;SDS011;10231;47.702;9.826;2023-03-15T13:44:22;0.63;;;0.40;;
20140;SDS011;10231;47.702;9.826;2023-03-15T13:46:49;0.30;;;0.30;;
20140;SDS011;10231;47.702;9.826;2023-03-15T13:49:16;0.60;;;0.50;;
20140;SDS011;10231;47.702;9.826;2023-03-15T13:51:43;1.20;;;0.63;;
20140;SDS011;10231;47.702;9.826;2023-03-15T13:54:12;0.40;;;0.40;;
20140;SDS011;10231;47.702;9.826;2023-03-15T13:56:44;0.50;;;0.37;;
20140;SDS011;10231;47.702;9.826;2023-03-15T13:59:24;0.30;;;0.30;;
20140;SDS011;10231;47.702;9.826;2023-03-15T14:01:53;0.50;;;0.50;;
20140;SDS011;10231;47.702;9.826;2023-03-15T14:04:20;0.97;;;0.50;;
20140;SDS011;10231;47.702;9.826;2023-03-15T14:06:48;0.50;;;0.50;;
20140;SDS011;10231;47.702;9.826;2023-03-15T14:09:18;0.67;;;0.53;;
20140;SDS011;10231;47.702;9.826;2023-03-15T14:11:46;1.50;;;0.50;;
20140;SDS011;10231;47.702;9.826;2023-03-15T14:14:29;1.33;;;0.60;;
20140;SDS011;10231;47.702;9.826;2023-03-15T14:16:56;1.47;;;0.60;;
20140;SDS011;10231;47.702;9.826;2023-03-15T14:19:24;0.60;;;0.60;;
20140;SDS011;10231;47.702;9.826;2023-03-15T14:21:52;0.30;;;0.30;;
20140;SDS011;10231;47.702;9.826;2023-03-15T14:24:31;0.40;;;0.40;;
20140;SDS011;10231;47.702;9.826;2023-03-15T14:27:03;0.73;;;0.40;;
20140;SDS011;10231;47.702;9.826;2023-03-15T14:29:32;5.67;;;0.60;;
20140;SDS011;10231;47.702;9.826;2023-03-15T14:32:01;0.50;;;0.50;;
20140;SDS011;10231;47.702;9.826;2023-03-15T14:34:34;1.47;;;0.40;;
20140;SDS011;10231;47.702;9.826;2023-03-15T14:37:28;0.60;;;0.60;;
20140;SDS011;10231;47.702;9.826;2023-03-15T14:40:03;0.97;;;0.40;;
20140;SDS011;10231;47.702;9.826;2023-03-15T14:42:49;0.47;;;0.47;;
20140;SDS011;10231;47.702;9.826;2023-03-15T14:45:15;1.33;;;0.40;;
20140;SDS011;10231;47.702;9.826;2023-03-15T14:47:43;0.30;;;0.30;;
20140;SDS011;10231;47.702;9.826;2023-03-15T14:50:12;0.50;;;0.50;;
20140;SDS011;10231;47.702;9.826;2023-03-15T14:52:43;0.80;;;0.40;;
20140;SDS011;10231;47.702;9.826;2023-03-15T14:55:12;0.40;;;0.40;;
20140;SDS011;10231;47.702;9.826;2023-03-15T14:57:40;1.50;;;0.60;;
20140;SDS011;10231;47.702;9.826;2023-03-15T15:00:12;0.63;;;0.50;;
20140;SDS011;10231;47.702;9.826;2023-03-15T15:02:45;0.40;;;0.40;;
20140;SDS011;10231;47.702;9.826;2023-03-15T15:05:25;0.70;;;0.60;;
20140;SDS011;10231;47.702;9.826;2023-03-15T15:07:55;0.40;;;0.40;;
20140;SDS011;10231;47.702;9.826;2023-03-15T15:10:44;0.90;;;0.40;;
20140;SDS011;10231;47.702;9.826;2023-03-15T15:13:29;1.03;;;0.70;;
20140;SDS011;10231;47.702;9.826;2023-03-15T15:15:55;0.53;;;0.53;;
20140;SDS011;10231;47.702;9.826;2023-03-15T15:18:22;0.40;;;0.40;;
20140;SDS011;10231;47.702;9.826;2023-03-15T15:20:49;0.30;;;0.30;;
20140;SDS011;10231;47.702;9.826;2023-03-15T15:23:22;0.63;;;0.63;;
20140;SDS011;10231;47.702;9.826;2023-03-15T15:25:55;1.20;;;0.63;;
20140;SDS011;10231;47.702;9.826;2023-03-15T15:28:26;0.40;;;0.40;;
20140;SDS011;10231;47.702;9.826;2023-03-15T15:30:53;0.30;;;0.30;;
20140;SDS011;10231;47.702;9.826;2023-03-15T15:33:18;0.40;;;0.40;;
20140;SDS011;10231;47.702;9.826;2023-03-15T15:35:44;0.37;;;0.30;;
20140;SDS011;10231;47.702;9.826;2023-03-15T15:38:10;0.40;;;0.40;;
20140;SDS011;10231;47.702;9.826;2023-03-15T15:40:37;0.50;;;0.50;;
20140;SDS011;10231;47.702;9.826;2023-03-15T15:43:03;0.60;;;0.40;;
20140;SDS011;10231;47.702;9.826;2023-03-15T15:45:29;0.40;;;0.40;;
20140;SDS011;10231;47.702;9.826;2023-03-15T15:47:58;0.60;;;0.60;;
20140;SDS011;10231;47.702;9.826;2023-03-15T15:50:30;0.80;;;0.80;;
20140;SDS011;10231;47.702;9.826;2023-03-15T15:53:04;0.50;;;0.50;;